Jack northrop Field Hawthorne Municipal Airport Hawthorne US
ICAO: KHHR
IATA: HHR
Category: Medium
Scheduled Services: No

Elevation: 66 ft
TransAlt. 18000 ft.

Airport Communications:
SOCAL APP:124.3
ATIS:118.4
CTAF:121.1
SOCAL DEP:124.3
GND:125.1
HAWTHORNE RDO:122.2
TWR:121.1

KHHR Zoom In..

If you have problems with the map follow the link
https://www.worldairports.se/pages/airport.php?
ICAO=KHHR

Runways:

(A) RW 07 length 4956 ft width 100 ft
LOC 109.10 / hdg 73

(B) RW 25 length 4956 ft width 100 ft
LOC 109.10 / hdg 253

Location; KHHR
Day. 13 / Time. 19.53 Zulu
* Altimeter: 30.11
* Temperature: 17° c. 62.6°f.
* Wind from: VRB° Speed 05 kn.
Dewpoint: 13° c.
Visibility: 3 Statute Miles.
Clouds: Few 900 ft.
Conditions: Haze.

KHHR 131953Z VRB05KT 3SM HZ FEW009 17/13 A3011 RMK AO2 SLP195 T01670128 $


Wind From VRB°
Speed 05 kn.

 
 
jpsmedia worldairports.se 2019   terms of use